sensor_id;sensor_type;location;lat;lon;timestamp;pressure;altitude;pressure_sealevel;temperature;humidity
86413;BME280;77065;42.672;23.356;2024-03-08T00:00:58;95141.84;;;5.58;82.40
86413;BME280;77065;42.672;23.356;2024-03-08T00:03:24;95149.03;;;5.63;81.97
86413;BME280;77065;42.672;23.356;2024-03-08T00:05:49;95146.13;;;5.66;82.35
86413;BME280;77065;42.672;23.356;2024-03-08T00:08:15;95147.75;;;5.67;81.63
86413;BME280;77065;42.672;23.356;2024-03-08T00:10:40;95144.84;;;5.70;81.96
86413;BME280;77065;42.672;23.356;2024-03-08T00:13:06;95137.16;;;5.62;80.50
86413;BME280;77065;42.672;23.356;2024-03-08T00:15:31;95144.53;;;5.65;80.29
86413;BME280;77065;42.672;23.356;2024-03-08T00:17:57;95143.56;;;5.66;80.79
86413;BME280;77065;42.672;23.356;2024-03-08T00:20:23;95140.25;;;5.57;81.56
86413;BME280;77065;42.672;23.356;2024-03-08T00:22:48;95133.09;;;5.44;79.65
86413;BME280;77065;42.672;23.356;2024-03-08T00:25:14;95142.56;;;5.44;79.45
86413;BME280;77065;42.672;23.356;2024-03-08T00:27:40;95138.53;;;5.49;80.98
86413;BME280;77065;42.672;23.356;2024-03-08T00:30:09;95133.72;;;5.46;81.04
86413;BME280;77065;42.672;23.356;2024-03-08T00:32:34;95131.81;;;5.40;81.63
86413;BME280;77065;42.672;23.356;2024-03-08T00:35:01;95132.94;;;5.46;81.95
86413;BME280;77065;42.672;23.356;2024-03-08T00:37:26;95131.78;;;5.48;81.99
86413;BME280;77065;42.672;23.356;2024-03-08T00:39:52;95127.97;;;5.36;81.36
86413;BME280;77065;42.672;23.356;2024-03-08T00:42:19;95119.44;;;5.44;82.39
86413;BME280;77065;42.672;23.356;2024-03-08T00:44:45;95120.31;;;5.28;81.77
86413;BME280;77065;42.672;23.356;2024-03-08T00:47:10;95128.59;;;5.38;82.10
86413;BME280;77065;42.672;23.356;2024-03-08T00:49:36;95133.47;;;5.33;82.67
86413;BME280;77065;42.672;23.356;2024-03-08T00:52:04;95116.38;;;5.40;82.46
86413;BME280;77065;42.672;23.356;2024-03-08T00:54:32;95120.91;;;5.38;83.00
86413;BME280;77065;42.672;23.356;2024-03-08T00:56:58;95115.75;;;5.38;80.76
86413;BME280;77065;42.672;23.356;2024-03-08T00:59:23;95116.56;;;5.39;80.23
86413;BME280;77065;42.672;23.356;2024-03-08T01:01:48;95106.75;;;5.42;81.62
86413;BME280;77065;42.672;23.356;2024-03-08T01:04:14;95111.31;;;5.32;82.26
86413;BME280;77065;42.672;23.356;2024-03-08T01:06:39;95102.69;;;5.25;82.84
86413;BME280;77065;42.672;23.356;2024-03-08T01:09:05;95108.41;;;5.35;82.65
86413;BME280;77065;42.672;23.356;2024-03-08T01:11:33;95102.06;;;5.23;81.77
86413;BME280;77065;42.672;23.356;2024-03-08T01:13:59;95103.47;;;5.26;81.44
86413;BME280;77065;42.672;23.356;2024-03-08T01:16:24;95098.69;;;5.22;82.49
86413;BME280;77065;42.672;23.356;2024-03-08T01:18:50;95094.66;;;5.20;81.82
86413;BME280;77065;42.672;23.356;2024-03-08T01:21:15;95093.53;;;5.22;81.88
86413;BME280;77065;42.672;23.356;2024-03-08T01:23:41;95094.50;;;5.21;82.84
86413;BME280;77065;42.672;23.356;2024-03-08T01:26:06;95097.84;;;5.30;80.88
86413;BME280;77065;42.672;23.356;2024-03-08T01:28:31;95091.25;;;5.28;81.80
86413;BME280;77065;42.672;23.356;2024-03-08T01:30:59;95091.78;;;5.15;82.49
86413;BME280;77065;42.672;23.356;2024-03-08T01:33:26;95085.91;;;5.06;81.84
86413;BME280;77065;42.672;23.356;2024-03-08T01:35:52;95089.56;;;5.12;83.18
86413;BME280;77065;42.672;23.356;2024-03-08T01:38:19;95086.38;;;5.10;83.58
86413;BME280;77065;42.672;23.356;2024-03-08T01:40:44;95086.03;;;5.13;82.43
86413;BME280;77065;42.672;23.356;2024-03-08T01:43:20;95079.63;;;5.09;82.58
86413;BME280;77065;42.672;23.356;2024-03-08T01:45:46;95082.03;;;5.10;82.83
86413;BME280;77065;42.672;23.356;2024-03-08T01:48:12;95084.59;;;5.10;82.86
86413;BME280;77065;42.672;23.356;2024-03-08T01:50:38;95081.53;;;5.15;82.05
86413;BME280;77065;42.672;23.356;2024-03-08T01:53:05;95082.66;;;5.12;82.53
86413;BME280;77065;42.672;23.356;2024-03-08T01:55:31;95082.78;;;5.19;81.73
86413;BME280;77065;42.672;23.356;2024-03-08T01:57:58;95078.59;;;5.18;82.89
86413;BME280;77065;42.672;23.356;2024-03-08T02:00:25;95075.75;;;5.13;81.51
86413;BME280;77065;42.672;23.356;2024-03-08T02:02:53;95079.28;;;5.12;82.12
86413;BME280;77065;42.672;23.356;2024-03-08T02:05:19;95077.00;;;5.17;80.72
86413;BME280;77065;42.672;23.356;2024-03-08T02:07:45;95078.94;;;5.15;82.17
86413;BME280;77065;42.672;23.356;2024-03-08T02:10:11;95076.91;;;5.10;81.19
86413;BME280;77065;42.672;23.356;2024-03-08T02:12:38;95079.28;;;5.12;80.42
86413;BME280;77065;42.672;23.356;2024-03-08T02:15:04;95076.56;;;5.13;80.75
86413;BME280;77065;42.672;23.356;2024-03-08T02:17:31;95082.50;;;5.14;80.57
86413;BME280;77065;42.672;23.356;2024-03-08T02:19:59;95078.16;;;5.14;81.17
86413;BME280;77065;42.672;23.356;2024-03-08T02:22:27;95075.41;;;5.16;79.15
86413;BME280;77065;42.672;23.356;2024-03-08T02:24:54;95079.13;;;5.13;79.90
86413;BME280;77065;42.672;23.356;2024-03-08T02:27:26;95079.47;;;5.10;80.40
86413;BME280;77065;42.672;23.356;2024-03-08T02:29:54;95082.16;;;5.17;80.33
86413;BME280;77065;42.672;23.356;2024-03-08T02:32:25;95088.09;;;5.17;80.27
86413;BME280;77065;42.672;23.356;2024-03-08T02:34:51;95088.88;;;5.18;77.25
86413;BME280;77065;42.672;23.356;2024-03-08T02:37:17;95088.56;;;5.21;78.75
86413;BME280;77065;42.672;23.356;2024-03-08T02:39:43;95100.94;;;5.17;77.73
86413;BME280;77065;42.672;23.356;2024-03-08T02:42:08;95096.31;;;5.13;79.83
86413;BME280;77065;42.672;23.356;2024-03-08T02:44:34;95100.34;;;5.07;80.33
86413;BME280;77065;42.672;23.356;2024-03-08T02:47:00;95089.56;;;5.12;79.54
86413;BME280;77065;42.672;23.356;2024-03-08T02:49:28;95097.44;;;5.10;78.85
86413;BME280;77065;42.672;23.356;2024-03-08T02:51:54;95099.84;;;5.12;78.28
86413;BME280;77065;42.672;23.356;2024-03-08T02:54:22;95090.53;;;5.11;76.05
86413;BME280;77065;42.672;23.356;2024-03-08T02:56:49;95093.09;;;5.11;76.85
86413;BME280;77065;42.672;23.356;2024-03-08T02:59:17;95097.09;;;5.13;77.62
86413;BME280;77065;42.672;23.356;2024-03-08T03:01:45;95095.25;;;4.99;78.38
86413;BME280;77065;42.672;23.356;2024-03-08T03:04:10;95101.84;;;4.93;74.53
86413;BME280;77065;42.672;23.356;2024-03-08T03:06:36;95096.97;;;5.07;71.55
86413;BME280;77065;42.672;23.356;2024-03-08T03:09:02;95103.72;;;5.08;72.07
86413;BME280;77065;42.672;23.356;2024-03-08T03:11:27;95100.19;;;5.09;73.34
86413;BME280;77065;42.672;23.356;2024-03-08T03:13:53;95102.13;;;5.07;74.24
86413;BME280;77065;42.672;23.356;2024-03-08T03:16:19;95100.25;;;4.92;74.32
86413;BME280;77065;42.672;23.356;2024-03-08T03:18:45;95107.31;;;4.99;72.61
86413;BME280;77065;42.672;23.356;2024-03-08T03:21:11;95110.50;;;5.01;72.76
86413;BME280;77065;42.672;23.356;2024-03-08T03:23:38;95114.66;;;5.02;73.86
86413;BME280;77065;42.672;23.356;2024-03-08T03:26:08;95110.50;;;5.01;71.78
86413;BME280;77065;42.672;23.356;2024-03-08T03:28:34;95115.81;;;4.99;71.40
86413;BME280;77065;42.672;23.356;2024-03-08T03:30:59;95108.22;;;4.98;70.90
86413;BME280;77065;42.672;23.356;2024-03-08T03:33:25;95110.50;;;4.92;70.99
86413;BME280;77065;42.672;23.356;2024-03-08T03:35:51;95117.56;;;4.99;72.65
86413;BME280;77065;42.672;23.356;2024-03-08T03:38:19;95117.72;;;4.97;72.68
86413;BME280;77065;42.672;23.356;2024-03-08T03:40:48;95117.25;;;4.93;72.87
86413;BME280;77065;42.672;23.356;2024-03-08T03:43:17;95121.13;;;4.89;72.60
86413;BME280;77065;42.672;23.356;2024-03-08T03:45:43;95122.72;;;4.90;73.74
86413;BME280;77065;42.672;23.356;2024-03-08T03:48:08;95128.81;;;4.89;73.72
86413;BME280;77065;42.672;23.356;2024-03-08T03:50:35;95127.84;;;4.90;74.23
86413;BME280;77065;42.672;23.356;2024-03-08T03:53:01;95130.59;;;4.89;72.74
86413;BME280;77065;42.672;23.356;2024-03-08T03:55:27;95131.72;;;4.86;72.17
86413;BME280;77065;42.672;23.356;2024-03-08T03:57:54;95134.47;;;4.85;72.89
86413;BME280;77065;42.672;23.356;2024-03-08T04:00:19;95130.47;;;4.82;73.73
86413;BME280;77065;42.672;23.356;2024-03-08T04:02:45;95134.00;;;4.81;73.75
86413;BME280;77065;42.672;23.356;2024-03-08T04:05:12;95141.06;;;4.79;72.65
86413;BME280;77065;42.672;23.356;2024-03-08T04:07:38;95146.66;;;4.83;72.67
86413;BME280;77065;42.672;23.356;2024-03-08T04:10:06;95145.56;;;4.77;73.28
86413;BME280;77065;42.672;23.356;2024-03-08T04:12:33;95143.78;;;4.78;73.19
86413;BME280;77065;42.672;23.356;2024-03-08T04:14:59;95146.19;;;4.79;74.64
86413;BME280;77065;42.672;23.356;2024-03-08T04:17:24;95151.31;;;4.79;73.26
86413;BME280;77065;42.672;23.356;2024-03-08T04:19:50;95153.56;;;4.74;73.26
86413;BME280;77065;42.672;23.356;2024-03-08T04:22:16;95148.28;;;4.76;72.81
86413;BME280;77065;42.672;23.356;2024-03-08T04:24:43;95159.66;;;4.81;72.10
86413;BME280;77065;42.672;23.356;2024-03-08T04:27:09;95159.19;;;4.78;72.71
86413;BME280;77065;42.672;23.356;2024-03-08T04:29:34;95166.41;;;4.82;72.83
86413;BME280;77065;42.672;23.356;2024-03-08T04:32:02;95168.81;;;4.76;73.76
86413;BME280;77065;42.672;23.356;2024-03-08T04:34:29;95161.25;;;4.74;73.91
86413;BME280;77065;42.672;23.356;2024-03-08T04:36:54;95180.88;;;4.59;73.58
86413;BME280;77065;42.672;23.356;2024-03-08T04:39:22;95175.75;;;4.59;73.57
86413;BME280;77065;42.672;23.356;2024-03-08T04:41:47;95176.06;;;4.56;73.38
86413;BME280;77065;42.672;23.356;2024-03-08T04:44:14;95174.16;;;4.58;74.77
86413;BME280;77065;42.672;23.356;2024-03-08T04:46:39;95178.94;;;4.61;73.59
86413;BME280;77065;42.672;23.356;2024-03-08T04:49:05;95183.13;;;4.62;74.31
86413;BME280;77065;42.672;23.356;2024-03-08T04:51:32;95169.00;;;4.58;73.78
86413;BME280;77065;42.672;23.356;2024-03-08T04:53:58;95177.03;;;4.63;73.60
86413;BME280;77065;42.672;23.356;2024-03-08T04:56:25;95181.34;;;4.63;74.13
86413;BME280;77065;42.672;23.356;2024-03-08T04:58:51;95183.94;;;4.54;74.30
86413;BME280;77065;42.672;23.356;2024-03-08T05:01:16;95184.56;;;4.48;74.75
86413;BME280;77065;42.672;23.356;2024-03-08T05:03:42;95187.59;;;4.52;74.78
86413;BME280;77065;42.672;23.356;2024-03-08T05:06:07;95192.09;;;4.50;75.22
86413;BME280;77065;42.672;23.356;2024-03-08T05:08:33;95192.44;;;4.47;75.75
86413;BME280;77065;42.672;23.356;2024-03-08T05:10:59;95185.38;;;4.49;75.64
86413;BME280;77065;42.672;23.356;2024-03-08T05:13:30;95198.84;;;4.51;76.02
86413;BME280;77065;42.672;23.356;2024-03-08T05:15:56;95206.38;;;4.52;75.15
86413;BME280;77065;42.672;23.356;2024-03-08T05:18:23;95208.00;;;4.53;75.60
86413;BME280;77065;42.672;23.356;2024-03-08T05:20:49;95192.75;;;4.44;75.38
86413;BME280;77065;42.672;23.356;2024-03-08T05:23:15;95211.84;;;4.57;75.84
86413;BME280;77065;42.672;23.356;2024-03-08T05:25:40;95204.13;;;4.41;76.98
86413;BME280;77065;42.672;23.356;2024-03-08T05:28:06;95220.34;;;4.58;76.14
86413;BME280;77065;42.672;23.356;2024-03-08T05:30:32;95218.75;;;4.57;76.55
86413;BME280;77065;42.672;23.356;2024-03-08T05:32:58;95229.81;;;4.57;77.01
86413;BME280;77065;42.672;23.356;2024-03-08T05:35:24;95228.03;;;4.66;76.73
86413;BME280;77065;42.672;23.356;2024-03-08T05:37:49;95228.66;;;4.68;76.43
86413;BME280;77065;42.672;23.356;2024-03-08T05:40:15;95227.53;;;4.71;77.63
86413;BME280;77065;42.672;23.356;2024-03-08T05:42:41;95241.34;;;4.78;77.04
86413;BME280;77065;42.672;23.356;2024-03-08T05:45:07;95247.28;;;4.78;75.84
86413;BME280;77065;42.672;23.356;2024-03-08T05:47:33;95247.75;;;4.82;77.70
86413;BME280;77065;42.672;23.356;2024-03-08T05:49:59;95241.34;;;4.78;76.63
86413;BME280;77065;42.672;23.356;2024-03-08T05:52:24;95246.63;;;4.84;77.27
86413;BME280;77065;42.672;23.356;2024-03-08T05:54:51;95253.66;;;4.90;77.10
86413;BME280;77065;42.672;23.356;2024-03-08T05:57:16;95247.56;;;4.91;77.48
86413;BME280;77065;42.672;23.356;2024-03-08T05:59:42;95255.09;;;4.93;78.03
86413;BME280;77065;42.672;23.356;2024-03-08T06:02:07;95265.84;;;4.97;77.82
86413;BME280;77065;42.672;23.356;2024-03-08T06:04:33;95268.75;;;5.02;77.52
86413;BME280;77065;42.672;23.356;2024-03-08T06:06:58;95264.75;;;4.99;80.46
86413;BME280;77065;42.672;23.356;2024-03-08T06:09:24;95270.34;;;5.03;76.79
86413;BME280;77065;42.672;23.356;2024-03-08T06:11:51;95271.78;;;4.97;76.32
86413;BME280;77065;42.672;23.356;2024-03-08T06:14:17;95275.50;;;4.86;76.45
86413;BME280;77065;42.672;23.356;2024-03-08T06:16:44;95275.81;;;4.83;76.50
86413;BME280;77065;42.672;23.356;2024-03-08T06:19:09;95274.88;;;4.76;77.71
86413;BME280;77065;42.672;23.356;2024-03-08T06:21:36;95278.88;;;4.79;77.67
86413;BME280;77065;42.672;23.356;2024-03-08T06:24:01;95277.75;;;4.81;77.79
86413;BME280;77065;42.672;23.356;2024-03-08T06:26:27;95277.44;;;4.84;78.11
86413;BME280;77065;42.672;23.356;2024-03-08T06:28:56;95284.50;;;4.82;77.12
86413;BME280;77065;42.672;23.356;2024-03-08T06:31:21;95285.59;;;4.88;76.66
86413;BME280;77065;42.672;23.356;2024-03-08T06:33:47;95280.97;;;4.83;76.85
86413;BME280;77065;42.672;23.356;2024-03-08T06:36:18;95283.84;;;4.80;75.68
86413;BME280;77065;42.672;23.356;2024-03-08T06:38:50;95286.56;;;4.87;77.13
86413;BME280;77065;42.672;23.356;2024-03-08T06:41:16;95290.91;;;4.86;77.09
86413;BME280;77065;42.672;23.356;2024-03-08T06:43:47;95286.13;;;4.75;72.80
86413;BME280;77065;42.672;23.356;2024-03-08T06:46:17;95296.50;;;4.74;72.25
86413;BME280;77065;42.672;23.356;2024-03-08T06:48:43;95296.69;;;4.80;72.83
86413;BME280;77065;42.672;23.356;2024-03-08T06:51:11;95293.16;;;4.89;72.57
86413;BME280;77065;42.672;23.356;2024-03-08T06:53:36;95296.53;;;4.90;71.73
86413;BME280;77065;42.672;23.356;2024-03-08T06:56:02;95293.31;;;4.88;72.02
86413;BME280;77065;42.672;23.356;2024-03-08T06:58:28;95299.41;;;4.95;73.33
86413;BME280;77065;42.672;23.356;2024-03-08T07:00:53;95299.88;;;5.07;72.04
86413;BME280;77065;42.672;23.356;2024-03-08T07:03:20;95304.72;;;5.02;72.27
86413;BME280;77065;42.672;23.356;2024-03-08T07:05:47;95307.25;;;5.10;71.63
86413;BME280;77065;42.672;23.356;2024-03-08T07:08:12;95301.78;;;5.13;71.17
86413;BME280;77065;42.672;23.356;2024-03-08T07:10:39;95303.41;;;5.14;70.38
86413;BME280;77065;42.672;23.356;2024-03-08T07:13:07;95298.91;;;5.24;70.26
86413;BME280;77065;42.672;23.356;2024-03-08T07:15:33;95308.84;;;5.19;70.42
86413;BME280;77065;42.672;23.356;2024-03-08T07:17:58;95303.50;;;5.37;70.69
86413;BME280;77065;42.672;23.356;2024-03-08T07:20:25;95306.56;;;5.40;71.16
86413;BME280;77065;42.672;23.356;2024-03-08T07:22:50;95309.44;;;5.37;71.32
86413;BME280;77065;42.672;23.356;2024-03-08T07:25:16;95307.84;;;5.44;70.95
86413;BME280;77065;42.672;23.356;2024-03-08T07:27:52;95313.44;;;5.56;70.08
86413;BME280;77065;42.672;23.356;2024-03-08T07:30:19;95314.22;;;5.57;68.37
86413;BME280;77065;42.672;23.356;2024-03-08T07:33:04;95309.78;;;5.34;68.65
86413;BME280;77065;42.672;23.356;2024-03-08T07:35:31;95314.09;;;5.50;69.46
86413;BME280;77065;42.672;23.356;2024-03-08T07:37:57;95312.72;;;5.23;70.05
86413;BME280;77065;42.672;23.356;2024-03-08T07:40:25;95316.84;;;5.48;70.01
86413;BME280;77065;42.672;23.356;2024-03-08T07:42:50;95320.63;;;5.61;70.68
86413;BME280;77065;42.672;23.356;2024-03-08T07:45:16;95320.63;;;5.61;69.71
86413;BME280;77065;42.672;23.356;2024-03-08T07:47:42;95315.53;;;5.52;69.02
86413;BME280;77065;42.672;23.356;2024-03-08T07:50:08;95318.69;;;5.63;69.86
86413;BME280;77065;42.672;23.356;2024-03-08T07:52:34;95316.31;;;5.61;69.94
86413;BME280;77065;42.672;23.356;2024-03-08T07:55:01;95314.59;;;5.37;70.36
86413;BME280;77065;42.672;23.356;2024-03-08T07:57:27;95321.94;;;5.57;71.07
86413;BME280;77065;42.672;23.356;2024-03-08T07:59:52;95297.22;;;5.56;70.46
86413;BME280;77065;42.672;23.356;2024-03-08T08:02:18;95323.50;;;5.66;70.17
86413;BME280;77065;42.672;23.356;2024-03-08T08:04:43;95315.13;;;5.80;69.31
86413;BME280;77065;42.672;23.356;2024-03-08T08:07:10;95316.03;;;5.87;68.63
86413;BME280;77065;42.672;23.356;2024-03-08T08:09:35;95322.97;;;5.95;66.90
86413;BME280;77065;42.672;23.356;2024-03-08T08:12:02;95319.91;;;5.99;65.92
86413;BME280;77065;42.672;23.356;2024-03-08T08:14:28;95311.53;;;5.97;67.53
86413;BME280;77065;42.672;23.356;2024-03-08T08:16:54;95321.84;;;5.97;67.43
86413;BME280;77065;42.672;23.356;2024-03-08T08:19:21;95315.66;;;6.06;67.38
86413;BME280;77065;42.672;23.356;2024-03-08T08:21:46;95306.16;;;6.15;66.96
86413;BME280;77065;42.672;23.356;2024-03-08T08:24:12;95308.78;;;6.30;66.15
86413;BME280;77065;42.672;23.356;2024-03-08T08:26:37;95307.28;;;6.43;65.67
86413;BME280;77065;42.672;23.356;2024-03-08T08:29:03;95309.34;;;6.48;64.87
86413;BME280;77065;42.672;23.356;2024-03-08T08:31:28;95307.53;;;6.26;64.50
86413;BME280;77065;42.672;23.356;2024-03-08T08:33:54;95321.66;;;6.30;66.12
86413;BME280;77065;42.672;23.356;2024-03-08T08:36:26;95312.31;;;6.37;66.08
86413;BME280;77065;42.672;23.356;2024-03-08T08:38:55;95309.84;;;6.43;65.70
86413;BME280;77065;42.672;23.356;2024-03-08T08:41:21;95307.72;;;6.47;63.34
86413;BME280;77065;42.672;23.356;2024-03-08T08:43:47;95311.22;;;6.54;63.72
86413;BME280;77065;42.672;23.356;2024-03-08T08:46:17;95306.84;;;6.63;62.22
86413;BME280;77065;42.672;23.356;2024-03-08T08:48:42;95298.59;;;6.67;60.92
86413;BME280;77065;42.672;23.356;2024-03-08T08:51:10;95302.47;;;6.40;61.70
86413;BME280;77065;42.672;23.356;2024-03-08T08:53:39;95299.03;;;6.48;62.58
86413;BME280;77065;42.672;23.356;2024-03-08T08:56:15;95282.09;;;6.54;64.35
86413;BME280;77065;42.672;23.356;2024-03-08T08:58:44;95300.88;;;6.62;61.55
86413;BME280;77065;42.672;23.356;2024-03-08T09:01:10;95298.91;;;6.87;62.61
86413;BME280;77065;42.672;23.356;2024-03-08T09:03:38;95283.91;;;6.91;62.05
86413;BME280;77065;42.672;23.356;2024-03-08T09:06:07;95305.53;;;7.04;62.24
86413;BME280;77065;42.672;23.356;2024-03-08T09:08:41;95293.34;;;6.98;59.88
86413;BME280;77065;42.672;23.356;2024-03-08T09:11:07;95301.47;;;7.10;60.29
86413;BME280;77065;42.672;23.356;2024-03-08T09:13:33;95294.72;;;7.24;60.15
86413;BME280;77065;42.672;23.356;2024-03-08T09:16:04;95300.41;;;7.19;59.66
86413;BME280;77065;42.672;23.356;2024-03-08T09:18:30;95294.84;;;6.93;59.76
86413;BME280;77065;42.672;23.356;2024-03-08T09:21:00;95288.84;;;6.78;60.78
86413;BME280;77065;42.672;23.356;2024-03-08T09:23:25;95288.47;;;7.03;60.79
86413;BME280;77065;42.672;23.356;2024-03-08T09:25:56;95295.41;;;7.03;60.62
86413;BME280;77065;42.672;23.356;2024-03-08T09:28:25;95298.19;;;7.16;60.13
86413;BME280;77065;42.672;23.356;2024-03-08T09:30:51;95291.63;;;7.28;59.48
86413;BME280;77065;42.672;23.356;2024-03-08T09:33:17;95292.25;;;7.45;59.88
86413;BME280;77065;42.672;23.356;2024-03-08T09:35:45;95282.72;;;7.46;60.90
86413;BME280;77065;42.672;23.356;2024-03-08T09:38:14;95286.84;;;7.25;62.87
86413;BME280;77065;42.672;23.356;2024-03-08T09:40:43;95291.19;;;7.54;61.58
86413;BME280;77065;42.672;23.356;2024-03-08T09:43:12;95287.97;;;7.37;59.75
86413;BME280;77065;42.672;23.356;2024-03-08T09:45:40;95289.31;;;7.63;58.63
86413;BME280;77065;42.672;23.356;2024-03-08T09:48:11;95290.22;;;7.70;58.18
86413;BME280;77065;42.672;23.356;2024-03-08T09:50:38;95287.34;;;7.65;58.83
86413;BME280;77065;42.672;23.356;2024-03-08T09:53:04;95285.06;;;7.70;59.05
86413;BME280;77065;42.672;23.356;2024-03-08T09:55:37;95290.56;;;7.67;58.22
86413;BME280;77065;42.672;23.356;2024-03-08T09:58:08;95297.31;;;7.68;58.26
86413;BME280;77065;42.672;23.356;2024-03-08T10:00:53;95290.22;;;7.70;57.90
86413;BME280;77065;42.672;23.356;2024-03-08T10:03:19;95284.88;;;7.57;56.85
86413;BME280;77065;42.672;23.356;2024-03-08T10:05:45;95292.00;;;7.70;57.05
86413;BME280;77065;42.672;23.356;2024-03-08T10:08:11;95294.81;;;7.89;57.87
86413;BME280;77065;42.672;23.356;2024-03-08T10:10:38;95288.59;;;7.98;57.28
86413;BME280;77065;42.672;23.356;2024-03-08T10:13:06;95291.59;;;8.02;55.80
86413;BME280;77065;42.672;23.356;2024-03-08T10:15:32;95292.44;;;8.24;56.25
86413;BME280;77065;42.672;23.356;2024-03-08T10:18:01;95292.72;;;8.14;55.32
86413;BME280;77065;42.672;23.356;2024-03-08T10:20:30;95278.56;;;8.25;56.76
86413;BME280;77065;42.672;23.356;2024-03-08T10:23:04;95285.94;;;8.28;56.44
86413;BME280;77065;42.672;23.356;2024-03-08T10:25:31;95281.38;;;8.30;56.81
86413;BME280;77065;42.672;23.356;2024-03-08T10:27:57;95283.34;;;8.28;55.96
86413;BME280;77065;42.672;23.356;2024-03-08T10:30:22;95283.16;;;8.44;54.64
86413;BME280;77065;42.672;23.356;2024-03-08T10:32:48;95277.19;;;8.44;54.29
86413;BME280;77065;42.672;23.356;2024-03-08T10:35:14;95281.56;;;8.43;55.11
86413;BME280;77065;42.672;23.356;2024-03-08T10:37:47;95280.56;;;8.44;54.30
86413;BME280;77065;42.672;23.356;2024-03-08T10:40:19;95278.38;;;8.63;55.29
86413;BME280;77065;42.672;23.356;2024-03-08T10:42:58;95278.81;;;8.66;54.92
86413;BME280;77065;42.672;23.356;2024-03-08T10:48:41;95270.91;;;8.53;55.60
86413;BME280;77065;42.672;23.356;2024-03-08T10:51:09;95261.63;;;8.58;56.23
86413;BME280;77065;42.672;23.356;2024-03-08T10:53:37;95260.75;;;8.73;54.66
86413;BME280;77065;42.672;23.356;2024-03-08T10:56:07;95266.72;;;8.73;54.11
86413;BME280;77065;42.672;23.356;2024-03-08T10:58:35;95257.94;;;8.68;54.22
86413;BME280;77065;42.672;23.356;2024-03-08T11:01:02;95254.97;;;8.92;53.58
86413;BME280;77065;42.672;23.356;2024-03-08T11:08:40;95250.25;;;9.02;52.87
86413;BME280;77065;42.672;23.356;2024-03-08T11:11:26;95247.94;;;9.07;51.37
86413;BME280;77065;42.672;23.356;2024-03-08T11:13:53;95241.09;;;9.00;51.79
86413;BME280;77065;42.672;23.356;2024-03-08T11:18:53;95239.09;;;8.95;53.15
86413;BME280;77065;42.672;23.356;2024-03-08T11:21:19;95241.81;;;8.87;52.75
86413;BME280;77065;42.672;23.356;2024-03-08T11:23:59;95227.69;;;8.83;53.13
86413;BME280;77065;42.672;23.356;2024-03-08T11:26:25;95236.47;;;8.88;53.11
86413;BME280;77065;42.672;23.356;2024-03-08T11:28:50;95238.28;;;8.95;53.13
86413;BME280;77065;42.672;23.356;2024-03-08T11:33:46;95234.56;;;9.32;51.85
86413;BME280;77065;42.672;23.356;2024-03-08T11:36:20;95227.72;;;9.24;50.47
86413;BME280;77065;42.672;23.356;2024-03-08T11:38:48;95216.06;;;9.35;50.87
86413;BME280;77065;42.672;23.356;2024-03-08T11:41:23;95218.28;;;9.38;51.07
86413;BME280;77065;42.672;23.356;2024-03-08T11:44:01;95216.97;;;9.20;51.80
86413;BME280;77065;42.672;23.356;2024-03-08T11:46:26;95223.06;;;9.06;51.64
86413;BME280;77065;42.672;23.356;2024-03-08T11:48:54;95213.28;;;9.30;51.42
86413;BME280;77065;42.672;23.356;2024-03-08T11:51:20;95214.53;;;9.47;52.88
86413;BME280;77065;42.672;23.356;2024-03-08T11:53:51;95214.63;;;9.67;51.80
86413;BME280;77065;42.672;23.356;2024-03-08T11:56:17;95215.44;;;9.67;50.88
86413;BME280;77065;42.672;23.356;2024-03-08T11:58:53;95214.50;;;9.81;49.64
86413;BME280;77065;42.672;23.356;2024-03-08T12:01:21;95210.16;;;9.95;48.40
86413;BME280;77065;42.672;23.356;2024-03-08T12:03:56;95210.34;;;9.94;48.40
86413;BME280;77065;42.672;23.356;2024-03-08T12:06:26;95219.28;;;9.85;48.05
86413;BME280;77065;42.672;23.356;2024-03-08T12:08:52;95217.41;;;9.65;47.05
86413;BME280;77065;42.672;23.356;2024-03-08T12:11:19;95211.22;;;9.60;48.33
86413;BME280;77065;42.672;23.356;2024-03-08T12:13:48;95215.00;;;9.57;49.24
86413;BME280;77065;42.672;23.356;2024-03-08T12:16:16;95219.16;;;9.51;49.22
86413;BME280;77065;42.672;23.356;2024-03-08T12:18:44;95215.53;;;9.46;49.51
86413;BME280;77065;42.672;23.356;2024-03-08T12:21:11;95221.88;;;9.43;48.45
86413;BME280;77065;42.672;23.356;2024-03-08T12:23:38;95217.91;;;9.47;48.44
86413;BME280;77065;42.672;23.356;2024-03-08T12:28:38;95206.38;;;9.50;48.78
86413;BME280;77065;42.672;23.356;2024-03-08T12:31:07;95193.53;;;9.70;48.38
86413;BME280;77065;42.672;23.356;2024-03-08T12:33:54;95198.19;;;9.94;49.17
86413;BME280;77065;42.672;23.356;2024-03-08T12:36:24;95205.00;;;10.02;47.87
86413;BME280;77065;42.672;23.356;2024-03-08T12:38:50;95195.78;;;9.86;47.19
86413;BME280;77065;42.672;23.356;2024-03-08T12:41:18;95192.19;;;9.80;48.48
86413;BME280;77065;42.672;23.356;2024-03-08T12:43:47;95193.78;;;9.81;50.09
86413;BME280;77065;42.672;23.356;2024-03-08T12:46:20;95197.31;;;9.67;49.58
86413;BME280;77065;42.672;23.356;2024-03-08T12:48:51;95194.91;;;9.59;49.77
86413;BME280;77065;42.672;23.356;2024-03-08T12:51:20;95184.97;;;9.69;50.16
86413;BME280;77065;42.672;23.356;2024-03-08T12:53:46;95188.16;;;9.71;48.95
86413;BME280;77065;42.672;23.356;2024-03-08T12:56:31;95175.88;;;9.80;48.60
86413;BME280;77065;42.672;23.356;2024-03-08T12:58:58;95189.63;;;9.80;48.20
86413;BME280;77065;42.672;23.356;2024-03-08T13:01:23;95187.03;;;9.94;48.70
86413;BME280;77065;42.672;23.356;2024-03-08T13:03:49;95185.84;;;9.90;49.13
86413;BME280;77065;42.672;23.356;2024-03-08T13:06:18;95184.66;;;9.92;48.33
86413;BME280;77065;42.672;23.356;2024-03-08T13:08:44;95188.63;;;9.95;47.39
86413;BME280;77065;42.672;23.356;2024-03-08T13:11:10;95191.88;;;10.10;48.54
86413;BME280;77065;42.672;23.356;2024-03-08T13:13:42;95173.16;;;10.08;47.23
86413;BME280;77065;42.672;23.356;2024-03-08T13:16:09;95190.28;;;10.09;47.45